Terminal Aerodrome Forecast
Issued by NWS

Home | Current Version | Previous Version | Text Only | Print | Product List | Glossary On
Versions: 1 2 3 4 5 6 7 8 9 10 11 12 13 14 15
125
FTUS42 KFFC 240054 AAA
TAFRYY
TAF AMD
KRYY 240054Z 2401/2424 04010G18KT P6SM VCSH OVC010
      TEMPO 2401/2405 4SM -SHRA BKN008
     FM240800 VRB03KT 4SM BR BKN008
     FM241400 26006KT P6SM OVC012
     FM241800 29010KT P6SM VCSH BKN035=

USA.gov is the U.S. government's official web portal to all federal, state and local government web resources and services.